sensor_id;sensor_type;location;lat;lon;timestamp;P1;durP1;ratioP1;P2;durP2;ratioP2
819;SDS011;392;48.838;2.322;2023-11-21T00:00:17;4.10;;;3.70;;
819;SDS011;392;48.838;2.322;2023-11-21T00:02:45;4.93;;;3.73;;
819;SDS011;392;48.838;2.322;2023-11-21T00:05:13;3.60;;;3.40;;
819;SDS011;392;48.838;2.322;2023-11-21T00:07:41;4.40;;;3.87;;
819;SDS011;392;48.838;2.322;2023-11-21T00:10:09;4.43;;;4.00;;
819;SDS011;392;48.838;2.322;2023-11-21T00:12:40;3.83;;;3.50;;
819;SDS011;392;48.838;2.322;2023-11-21T00:15:08;4.10;;;3.73;;
819;SDS011;392;48.838;2.322;2023-11-21T00:17:37;5.87;;;3.17;;
819;SDS011;392;48.838;2.322;2023-11-21T00:20:05;3.97;;;3.70;;
819;SDS011;392;48.838;2.322;2023-11-21T00:22:33;4.07;;;3.70;;
819;SDS011;392;48.838;2.322;2023-11-21T00:25:01;4.60;;;4.07;;
819;SDS011;392;48.838;2.322;2023-11-21T00:27:30;4.47;;;3.40;;
819;SDS011;392;48.838;2.322;2023-11-21T00:29:59;3.57;;;3.27;;
819;SDS011;392;48.838;2.322;2023-11-21T00:32:26;4.87;;;3.93;;
819;SDS011;392;48.838;2.322;2023-11-21T00:34:53;3.30;;;3.00;;
819;SDS011;392;48.838;2.322;2023-11-21T00:37:20;4.13;;;3.83;;
819;SDS011;392;48.838;2.322;2023-11-21T00:39:50;4.90;;;4.50;;
819;SDS011;392;48.838;2.322;2023-11-21T00:42:17;5.43;;;3.40;;
819;SDS011;392;48.838;2.322;2023-11-21T00:44:44;3.90;;;3.57;;
819;SDS011;392;48.838;2.322;2023-11-21T00:47:13;4.20;;;3.57;;
819;SDS011;392;48.838;2.322;2023-11-21T00:49:40;3.90;;;3.50;;
819;SDS011;392;48.838;2.322;2023-11-21T00:52:08;3.37;;;3.07;;
819;SDS011;392;48.838;2.322;2023-11-21T00:54:35;5.50;;;4.57;;
819;SDS011;392;48.838;2.322;2023-11-21T00:57:04;4.03;;;3.70;;
819;SDS011;392;48.838;2.322;2023-11-21T00:59:31;4.93;;;3.70;;
819;SDS011;392;48.838;2.322;2023-11-21T01:01:58;4.70;;;4.07;;
819;SDS011;392;48.838;2.322;2023-11-21T01:04:28;3.70;;;3.40;;
819;SDS011;392;48.838;2.322;2023-11-21T01:06:55;3.63;;;3.43;;
819;SDS011;392;48.838;2.322;2023-11-21T01:09:22;4.37;;;4.00;;
819;SDS011;392;48.838;2.322;2023-11-21T01:11:50;4.83;;;3.93;;
819;SDS011;392;48.838;2.322;2023-11-21T01:14:18;4.77;;;4.10;;
819;SDS011;392;48.838;2.322;2023-11-21T01:16:46;4.33;;;3.93;;
819;SDS011;392;48.838;2.322;2023-11-21T01:19:14;4.33;;;3.90;;
819;SDS011;392;48.838;2.322;2023-11-21T01:21:42;4.93;;;3.93;;
819;SDS011;392;48.838;2.322;2023-11-21T01:24:10;4.60;;;3.63;;
819;SDS011;392;48.838;2.322;2023-11-21T01:26:37;4.30;;;3.90;;
819;SDS011;392;48.838;2.322;2023-11-21T01:29:04;4.33;;;3.93;;
819;SDS011;392;48.838;2.322;2023-11-21T01:31:31;3.23;;;3.03;;
819;SDS011;392;48.838;2.322;2023-11-21T01:33:58;4.37;;;3.80;;
819;SDS011;392;48.838;2.322;2023-11-21T01:36:29;4.00;;;3.70;;
819;SDS011;392;48.838;2.322;2023-11-21T01:38:59;7.40;;;4.00;;
819;SDS011;392;48.838;2.322;2023-11-21T01:41:26;4.37;;;3.97;;
819;SDS011;392;48.838;2.322;2023-11-21T01:43:55;4.80;;;3.80;;
819;SDS011;392;48.838;2.322;2023-11-21T01:46:22;4.50;;;3.13;;
819;SDS011;392;48.838;2.322;2023-11-21T01:48:50;5.47;;;4.20;;
819;SDS011;392;48.838;2.322;2023-11-21T01:51:18;3.90;;;3.60;;
819;SDS011;392;48.838;2.322;2023-11-21T01:53:45;3.83;;;3.47;;
819;SDS011;392;48.838;2.322;2023-11-21T01:56:14;4.23;;;3.50;;
819;SDS011;392;48.838;2.322;2023-11-21T01:58:42;3.53;;;3.23;;
819;SDS011;392;48.838;2.322;2023-11-21T02:01:12;4.53;;;3.83;;
819;SDS011;392;48.838;2.322;2023-11-21T02:03:39;4.90;;;4.50;;
819;SDS011;392;48.838;2.322;2023-11-21T02:06:07;4.00;;;3.57;;
819;SDS011;392;48.838;2.322;2023-11-21T02:08:35;4.60;;;3.53;;
819;SDS011;392;48.838;2.322;2023-11-21T02:11:03;4.03;;;3.73;;
819;SDS011;392;48.838;2.322;2023-11-21T02:13:33;3.70;;;3.40;;
819;SDS011;392;48.838;2.322;2023-11-21T02:16:00;4.10;;;3.30;;
819;SDS011;392;48.838;2.322;2023-11-21T02:18:27;4.17;;;3.40;;
819;SDS011;392;48.838;2.322;2023-11-21T02:20:55;4.00;;;3.60;;
819;SDS011;392;48.838;2.322;2023-11-21T02:23:24;4.00;;;3.70;;
819;SDS011;392;48.838;2.322;2023-11-21T02:25:54;5.27;;;3.73;;
819;SDS011;392;48.838;2.322;2023-11-21T02:28:21;3.43;;;3.23;;
819;SDS011;392;48.838;2.322;2023-11-21T02:30:51;3.67;;;3.47;;
819;SDS011;392;48.838;2.322;2023-11-21T02:33:21;3.80;;;3.50;;
819;SDS011;392;48.838;2.322;2023-11-21T02:35:48;3.70;;;3.07;;
819;SDS011;392;48.838;2.322;2023-11-21T02:38:16;3.40;;;3.20;;
819;SDS011;392;48.838;2.322;2023-11-21T02:40:46;4.50;;;3.50;;
819;SDS011;392;48.838;2.322;2023-11-21T02:43:14;4.87;;;3.50;;
819;SDS011;392;48.838;2.322;2023-11-21T02:45:41;3.87;;;3.10;;
819;SDS011;392;48.838;2.322;2023-11-21T02:48:08;3.83;;;3.43;;
819;SDS011;392;48.838;2.322;2023-11-21T02:50:35;3.20;;;2.90;;
819;SDS011;392;48.838;2.322;2023-11-21T02:53:03;4.20;;;3.67;;
819;SDS011;392;48.838;2.322;2023-11-21T02:55:31;4.10;;;3.73;;
819;SDS011;392;48.838;2.322;2023-11-21T02:58:01;4.60;;;3.53;;
819;SDS011;392;48.838;2.322;2023-11-21T03:00:30;3.73;;;3.43;;
819;SDS011;392;48.838;2.322;2023-11-21T03:02:57;3.63;;;3.33;;
819;SDS011;392;48.838;2.322;2023-11-21T03:05:25;4.30;;;3.90;;
819;SDS011;392;48.838;2.322;2023-11-21T03:07:54;4.40;;;3.60;;
819;SDS011;392;48.838;2.322;2023-11-21T03:10:21;5.60;;;3.40;;
819;SDS011;392;48.838;2.322;2023-11-21T03:12:48;4.20;;;3.70;;
819;SDS011;392;48.838;2.322;2023-11-21T03:15:17;3.20;;;3.00;;
819;SDS011;392;48.838;2.322;2023-11-21T03:17:44;4.10;;;3.80;;
819;SDS011;392;48.838;2.322;2023-11-21T03:20:14;4.37;;;3.30;;
819;SDS011;392;48.838;2.322;2023-11-21T03:22:42;3.50;;;3.30;;
819;SDS011;392;48.838;2.322;2023-11-21T03:25:09;3.33;;;3.03;;
819;SDS011;392;48.838;2.322;2023-11-21T03:27:37;4.00;;;3.67;;
819;SDS011;392;48.838;2.322;2023-11-21T03:30:07;6.10;;;3.60;;
819;SDS011;392;48.838;2.322;2023-11-21T03:32:37;5.43;;;3.93;;
819;SDS011;392;48.838;2.322;2023-11-21T03:35:05;3.83;;;3.50;;
819;SDS011;392;48.838;2.322;2023-11-21T03:37:33;3.73;;;3.43;;
819;SDS011;392;48.838;2.322;2023-11-21T03:40:00;3.77;;;3.57;;
819;SDS011;392;48.838;2.322;2023-11-21T03:42:29;5.80;;;3.70;;
819;SDS011;392;48.838;2.322;2023-11-21T03:44:56;5.13;;;4.23;;
819;SDS011;392;48.838;2.322;2023-11-21T03:47:23;3.70;;;3.40;;
819;SDS011;392;48.838;2.322;2023-11-21T03:49:53;5.30;;;4.03;;
819;SDS011;392;48.838;2.322;2023-11-21T03:52:21;4.70;;;3.60;;
819;SDS011;392;48.838;2.322;2023-11-21T03:54:48;4.40;;;4.00;;
819;SDS011;392;48.838;2.322;2023-11-21T03:57:15;4.40;;;4.00;;
819;SDS011;392;48.838;2.322;2023-11-21T03:59:42;6.37;;;4.37;;
819;SDS011;392;48.838;2.322;2023-11-21T04:02:10;4.43;;;3.90;;
819;SDS011;392;48.838;2.322;2023-11-21T04:04:37;4.53;;;4.03;;
819;SDS011;392;48.838;2.322;2023-11-21T04:07:05;4.07;;;3.77;;
819;SDS011;392;48.838;2.322;2023-11-21T04:09:33;3.80;;;3.47;;
819;SDS011;392;48.838;2.322;2023-11-21T04:12:01;4.00;;;3.70;;
819;SDS011;392;48.838;2.322;2023-11-21T04:14:29;4.07;;;3.77;;
819;SDS011;392;48.838;2.322;2023-11-21T04:16:56;4.50;;;4.10;;
819;SDS011;392;48.838;2.322;2023-11-21T04:19:23;4.80;;;4.13;;
819;SDS011;392;48.838;2.322;2023-11-21T04:21:50;4.77;;;4.37;;
819;SDS011;392;48.838;2.322;2023-11-21T04:24:19;4.23;;;3.87;;
819;SDS011;392;48.838;2.322;2023-11-21T04:26:46;4.13;;;3.83;;
819;SDS011;392;48.838;2.322;2023-11-21T04:29:13;4.17;;;3.77;;
819;SDS011;392;48.838;2.322;2023-11-21T04:31:41;4.87;;;4.47;;
819;SDS011;392;48.838;2.322;2023-11-21T04:34:09;5.97;;;4.30;;
819;SDS011;392;48.838;2.322;2023-11-21T04:36:36;4.10;;;3.80;;
819;SDS011;392;48.838;2.322;2023-11-21T04:39:03;4.93;;;4.43;;
819;SDS011;392;48.838;2.322;2023-11-21T04:41:33;4.90;;;4.50;;
819;SDS011;392;48.838;2.322;2023-11-21T04:44:01;5.70;;;4.80;;
819;SDS011;392;48.838;2.322;2023-11-21T04:46:30;5.43;;;4.93;;
819;SDS011;392;48.838;2.322;2023-11-21T04:48:57;4.70;;;3.70;;
819;SDS011;392;48.838;2.322;2023-11-21T04:51:24;4.87;;;4.37;;
819;SDS011;392;48.838;2.322;2023-11-21T04:53:52;5.03;;;4.63;;
819;SDS011;392;48.838;2.322;2023-11-21T04:56:19;5.47;;;4.97;;
819;SDS011;392;48.838;2.322;2023-11-21T04:58:48;4.80;;;4.33;;
819;SDS011;392;48.838;2.322;2023-11-21T05:01:15;5.27;;;4.87;;
819;SDS011;392;48.838;2.322;2023-11-21T05:03:43;6.13;;;5.63;;
819;SDS011;392;48.838;2.322;2023-11-21T05:06:10;6.60;;;5.93;;
819;SDS011;392;48.838;2.322;2023-11-21T05:08:37;6.33;;;5.83;;
819;SDS011;392;48.838;2.322;2023-11-21T05:11:05;6.53;;;5.60;;
819;SDS011;392;48.838;2.322;2023-11-21T05:13:33;6.10;;;5.40;;
819;SDS011;392;48.838;2.322;2023-11-21T05:16:02;6.27;;;5.67;;
819;SDS011;392;48.838;2.322;2023-11-21T05:18:32;6.47;;;5.87;;
819;SDS011;392;48.838;2.322;2023-11-21T05:20:59;5.80;;;5.30;;
819;SDS011;392;48.838;2.322;2023-11-21T05:23:27;7.00;;;6.23;;
819;SDS011;392;48.838;2.322;2023-11-21T05:25:54;6.53;;;5.97;;
819;SDS011;392;48.838;2.322;2023-11-21T05:28:22;6.20;;;5.60;;
819;SDS011;392;48.838;2.322;2023-11-21T05:30:49;6.57;;;6.00;;
819;SDS011;392;48.838;2.322;2023-11-21T05:33:18;6.30;;;5.63;;
819;SDS011;392;48.838;2.322;2023-11-21T05:35:45;6.07;;;5.17;;
819;SDS011;392;48.838;2.322;2023-11-21T05:38:13;6.60;;;5.63;;
819;SDS011;392;48.838;2.322;2023-11-21T05:40:41;5.50;;;5.10;;
819;SDS011;392;48.838;2.322;2023-11-21T05:43:09;5.67;;;5.23;;
819;SDS011;392;48.838;2.322;2023-11-21T05:45:37;5.77;;;5.27;;
819;SDS011;392;48.838;2.322;2023-11-21T05:48:04;5.40;;;4.90;;
819;SDS011;392;48.838;2.322;2023-11-21T05:50:33;5.30;;;4.80;;
819;SDS011;392;48.838;2.322;2023-11-21T05:53:00;5.30;;;4.73;;
819;SDS011;392;48.838;2.322;2023-11-21T05:55:27;5.23;;;4.80;;
819;SDS011;392;48.838;2.322;2023-11-21T05:57:54;5.07;;;4.57;;
819;SDS011;392;48.838;2.322;2023-11-21T06:00:22;5.63;;;5.13;;
819;SDS011;392;48.838;2.322;2023-11-21T06:02:50;4.37;;;4.07;;
819;SDS011;392;48.838;2.322;2023-11-21T06:05:19;5.00;;;4.60;;
819;SDS011;392;48.838;2.322;2023-11-21T06:07:50;4.80;;;4.27;;
819;SDS011;392;48.838;2.322;2023-11-21T06:10:19;4.37;;;4.00;;
819;SDS011;392;48.838;2.322;2023-11-21T06:12:47;5.00;;;4.60;;
819;SDS011;392;48.838;2.322;2023-11-21T06:15:14;4.10;;;3.80;;
819;SDS011;392;48.838;2.322;2023-11-21T06:17:44;4.80;;;4.40;;
819;SDS011;392;48.838;2.322;2023-11-21T06:20:14;4.20;;;3.90;;
819;SDS011;392;48.838;2.322;2023-11-21T06:22:44;4.60;;;4.30;;
819;SDS011;392;48.838;2.322;2023-11-21T06:25:16;4.83;;;4.43;;
819;SDS011;392;48.838;2.322;2023-11-21T06:27:44;4.73;;;4.33;;
819;SDS011;392;48.838;2.322;2023-11-21T06:30:12;4.40;;;4.00;;
819;SDS011;392;48.838;2.322;2023-11-21T06:32:42;4.70;;;4.30;;
819;SDS011;392;48.838;2.322;2023-11-21T06:35:11;4.63;;;4.23;;
819;SDS011;392;48.838;2.322;2023-11-21T06:37:38;4.90;;;4.50;;
819;SDS011;392;48.838;2.322;2023-11-21T06:40:06;4.50;;;4.20;;
819;SDS011;392;48.838;2.322;2023-11-21T06:42:36;4.67;;;4.27;;
819;SDS011;392;48.838;2.322;2023-11-21T06:45:05;5.00;;;4.60;;
819;SDS011;392;48.838;2.322;2023-11-21T06:47:33;4.30;;;3.97;;
819;SDS011;392;48.838;2.322;2023-11-21T06:50:00;4.50;;;4.20;;
819;SDS011;392;48.838;2.322;2023-11-21T06:52:27;3.60;;;3.40;;
819;SDS011;392;48.838;2.322;2023-11-21T06:54:58;3.93;;;3.67;;
819;SDS011;392;48.838;2.322;2023-11-21T06:57:26;4.80;;;4.50;;
819;SDS011;392;48.838;2.322;2023-11-21T06:59:54;4.87;;;4.47;;
819;SDS011;392;48.838;2.322;2023-11-21T07:02:22;5.27;;;4.87;;
819;SDS011;392;48.838;2.322;2023-11-21T07:04:49;4.80;;;3.80;;
819;SDS011;392;48.838;2.322;2023-11-21T07:07:17;6.07;;;5.57;;
819;SDS011;392;48.838;2.322;2023-11-21T07:09:45;6.37;;;5.87;;
819;SDS011;392;48.838;2.322;2023-11-21T07:12:13;6.80;;;6.20;;
819;SDS011;392;48.838;2.322;2023-11-21T07:14:40;6.47;;;5.87;;
819;SDS011;392;48.838;2.322;2023-11-21T07:17:11;6.80;;;6.20;;
819;SDS011;392;48.838;2.322;2023-11-21T07:19:38;6.10;;;5.50;;
819;SDS011;392;48.838;2.322;2023-11-21T07:22:06;7.37;;;6.60;;
819;SDS011;392;48.838;2.322;2023-11-21T07:24:34;6.93;;;6.37;;
819;SDS011;392;48.838;2.322;2023-11-21T07:27:02;6.90;;;6.30;;
819;SDS011;392;48.838;2.322;2023-11-21T07:29:29;7.30;;;6.60;;
819;SDS011;392;48.838;2.322;2023-11-21T07:31:58;7.00;;;6.30;;
819;SDS011;392;48.838;2.322;2023-11-21T07:34:27;7.27;;;6.57;;
819;SDS011;392;48.838;2.322;2023-11-21T07:36:54;8.00;;;7.30;;
819;SDS011;392;48.838;2.322;2023-11-21T07:39:21;6.70;;;6.00;;
819;SDS011;392;48.838;2.322;2023-11-21T07:41:49;9.13;;;7.07;;
819;SDS011;392;48.838;2.322;2023-11-21T07:44:16;6.90;;;6.17;;
819;SDS011;392;48.838;2.322;2023-11-21T07:46:45;8.93;;;6.30;;
819;SDS011;392;48.838;2.322;2023-11-21T07:49:12;7.97;;;7.17;;
819;SDS011;392;48.838;2.322;2023-11-21T07:51:43;8.30;;;7.50;;
819;SDS011;392;48.838;2.322;2023-11-21T07:54:10;9.50;;;7.60;;
819;SDS011;392;48.838;2.322;2023-11-21T07:56:37;9.07;;;7.10;;
819;SDS011;392;48.838;2.322;2023-11-21T07:59:04;9.20;;;7.87;;
819;SDS011;392;48.838;2.322;2023-11-21T08:01:32;9.47;;;8.47;;
819;SDS011;392;48.838;2.322;2023-11-21T08:03:59;9.60;;;6.80;;
819;SDS011;392;48.838;2.322;2023-11-21T08:06:28;10.10;;;8.67;;
819;SDS011;392;48.838;2.322;2023-11-21T08:08:57;8.90;;;6.30;;
819;SDS011;392;48.838;2.322;2023-11-21T08:11:25;8.70;;;6.80;;
819;SDS011;392;48.838;2.322;2023-11-21T08:13:54;11.03;;;9.03;;
819;SDS011;392;48.838;2.322;2023-11-21T08:16:22;8.73;;;7.83;;
819;SDS011;392;48.838;2.322;2023-11-21T08:18:49;8.90;;;8.03;;
819;SDS011;392;48.838;2.322;2023-11-21T08:21:16;7.40;;;6.70;;
819;SDS011;392;48.838;2.322;2023-11-21T08:23:44;9.33;;;8.53;;
819;SDS011;392;48.838;2.322;2023-11-21T08:26:13;10.07;;;7.80;;
819;SDS011;392;48.838;2.322;2023-11-21T08:28:43;10.13;;;8.30;;
819;SDS011;392;48.838;2.322;2023-11-21T08:31:10;10.17;;;9.10;;
819;SDS011;392;48.838;2.322;2023-11-21T08:33:38;8.60;;;7.67;;
819;SDS011;392;48.838;2.322;2023-11-21T08:36:06;9.50;;;8.47;;
819;SDS011;392;48.838;2.322;2023-11-21T08:41:04;15.03;;;10.00;;
819;SDS011;392;48.838;2.322;2023-11-21T08:43:35;12.37;;;10.07;;
819;SDS011;392;48.838;2.322;2023-11-21T08:46:05;11.63;;;10.43;;
819;SDS011;392;48.838;2.322;2023-11-21T08:48:34;10.60;;;8.27;;
819;SDS011;392;48.838;2.322;2023-11-21T08:51:02;11.07;;;9.87;;
819;SDS011;392;48.838;2.322;2023-11-21T08:53:30;11.10;;;9.00;;
819;SDS011;392;48.838;2.322;2023-11-21T08:55:58;11.20;;;8.60;;
819;SDS011;392;48.838;2.322;2023-11-21T08:58:25;11.20;;;8.13;;
819;SDS011;392;48.838;2.322;2023-11-21T09:00:54;8.73;;;7.23;;
819;SDS011;392;48.838;2.322;2023-11-21T09:03:21;10.73;;;7.83;;
819;SDS011;392;48.838;2.322;2023-11-21T09:05:48;10.20;;;7.60;;
819;SDS011;392;48.838;2.322;2023-11-21T09:08:17;10.87;;;7.37;;
819;SDS011;392;48.838;2.322;2023-11-21T09:10:44;9.40;;;8.20;;
819;SDS011;392;48.838;2.322;2023-11-21T09:13:12;10.17;;;7.90;;
819;SDS011;392;48.838;2.322;2023-11-21T09:15:42;9.60;;;8.07;;
819;SDS011;392;48.838;2.322;2023-11-21T09:18:13;9.40;;;7.13;;
819;SDS011;392;48.838;2.322;2023-11-21T09:20:40;10.30;;;8.47;;
819;SDS011;392;48.838;2.322;2023-11-21T09:23:09;13.03;;;7.07;;
819;SDS011;392;48.838;2.322;2023-11-21T09:25:36;9.10;;;8.00;;
819;SDS011;392;48.838;2.322;2023-11-21T09:28:04;9.30;;;7.10;;
819;SDS011;392;48.838;2.322;2023-11-21T09:30:33;10.00;;;9.00;;
819;SDS011;392;48.838;2.322;2023-11-21T09:33:01;9.10;;;7.50;;
819;SDS011;392;48.838;2.322;2023-11-21T09:35:32;9.97;;;8.53;;
819;SDS011;392;48.838;2.322;2023-11-21T09:37:59;9.53;;;7.87;;
819;SDS011;392;48.838;2.322;2023-11-21T09:40:30;14.57;;;9.27;;
819;SDS011;392;48.838;2.322;2023-11-21T09:42:58;14.60;;;10.03;;
819;SDS011;392;48.838;2.322;2023-11-21T09:45:26;8.37;;;6.80;;
819;SDS011;392;48.838;2.322;2023-11-21T09:47:56;7.90;;;7.20;;
819;SDS011;392;48.838;2.322;2023-11-21T09:50:24;9.73;;;8.73;;
819;SDS011;392;48.838;2.322;2023-11-21T09:52:57;6.97;;;6.27;;
819;SDS011;392;48.838;2.322;2023-11-21T09:55:32;7.17;;;6.40;;
819;SDS011;392;48.838;2.322;2023-11-21T09:58:02;6.30;;;5.03;;
819;SDS011;392;48.838;2.322;2023-11-21T10:00:33;8.83;;;8.00;;
819;SDS011;392;48.838;2.322;2023-11-21T10:03:01;7.83;;;7.13;;
819;SDS011;392;48.838;2.322;2023-11-21T10:05:29;6.63;;;4.50;;
819;SDS011;392;48.838;2.322;2023-11-21T10:08:01;5.97;;;4.83;;
819;SDS011;392;48.838;2.322;2023-11-21T10:10:31;4.33;;;3.87;;
819;SDS011;392;48.838;2.322;2023-11-21T10:13:01;4.73;;;4.10;;
819;SDS011;392;48.838;2.322;2023-11-21T10:15:31;6.20;;;4.43;;
819;SDS011;392;48.838;2.322;2023-11-21T10:18:04;5.30;;;4.80;;
819;SDS011;392;48.838;2.322;2023-11-21T10:20:34;4.13;;;3.73;;
819;SDS011;392;48.838;2.322;2023-11-21T10:23:04;6.87;;;6.37;;
819;SDS011;392;48.838;2.322;2023-11-21T10:25:36;4.47;;;4.00;;
819;SDS011;392;48.838;2.322;2023-11-21T10:28:04;5.20;;;4.60;;
819;SDS011;392;48.838;2.322;2023-11-21T10:30:32;4.90;;;4.50;;
819;SDS011;392;48.838;2.322;2023-11-21T10:33:02;3.60;;;3.30;;
819;SDS011;392;48.838;2.322;2023-11-21T10:35:42;4.87;;;4.37;;
819;SDS011;392;48.838;2.322;2023-11-21T10:38:17;4.50;;;4.00;;
819;SDS011;392;48.838;2.322;2023-11-21T10:40:46;4.30;;;4.00;;
819;SDS011;392;48.838;2.322;2023-11-21T10:43:14;5.10;;;4.70;;
819;SDS011;392;48.838;2.322;2023-11-21T10:45:42;3.50;;;3.20;;
819;SDS011;392;48.838;2.322;2023-11-21T10:48:10;4.60;;;4.03;;
819;SDS011;392;48.838;2.322;2023-11-21T10:50:40;4.07;;;3.77;;
819;SDS011;392;48.838;2.322;2023-11-21T10:53:09;4.60;;;3.70;;
819;SDS011;392;48.838;2.322;2023-11-21T10:55:39;4.77;;;3.97;;
819;SDS011;392;48.838;2.322;2023-11-21T10:58:07;3.87;;;3.57;;
819;SDS011;392;48.838;2.322;2023-11-21T11:00:37;3.30;;;3.00;;
819;SDS011;392;48.838;2.322;2023-11-21T11:03:06;4.80;;;3.80;;
819;SDS011;392;48.838;2.322;2023-11-21T11:05:39;3.80;;;3.40;;
819;SDS011;392;48.838;2.322;2023-11-21T11:08:16;5.90;;;5.40;;
819;SDS011;392;48.838;2.322;2023-11-21T11:10:52;3.80;;;3.40;;
819;SDS011;392;48.838;2.322;2023-11-21T11:13:20;3.23;;;3.00;;
819;SDS011;392;48.838;2.322;2023-11-21T11:15:48;3.63;;;2.90;;
819;SDS011;392;48.838;2.322;2023-11-21T11:18:15;3.80;;;3.30;;
819;SDS011;392;48.838;2.322;2023-11-21T11:20:43;2.90;;;2.70;;
819;SDS011;392;48.838;2.322;2023-11-21T11:23:20;2.67;;;2.20;;
819;SDS011;392;48.838;2.322;2023-11-21T11:26:09;3.43;;;3.13;;
819;SDS011;392;48.838;2.322;2023-11-21T11:28:47;3.20;;;2.93;;
819;SDS011;392;48.838;2.322;2023-11-21T11:31:36;3.30;;;3.00;;
819;SDS011;392;48.838;2.322;2023-11-21T11:34:17;3.70;;;3.40;;
819;SDS011;392;48.838;2.322;2023-11-21T11:36:54;2.80;;;2.60;;
819;SDS011;392;48.838;2.322;2023-11-21T11:39:28;3.17;;;2.97;;
819;SDS011;392;48.838;2.322;2023-11-21T11:41:58;3.00;;;2.80;;
819;SDS011;392;48.838;2.322;2023-11-21T11:44:49;3.73;;;3.00;;
819;SDS011;392;48.838;2.322;2023-11-21T11:47:20;3.47;;;3.10;;
819;SDS011;392;48.838;2.322;2023-11-21T11:50:01;3.57;;;3.27;;
819;SDS011;392;48.838;2.322;2023-11-21T11:52:37;2.60;;;2.43;;
819;SDS011;392;48.838;2.322;2023-11-21T11:55:07;2.60;;;2.40;;
819;SDS011;392;48.838;2.322;2023-11-21T11:57:41;3.60;;;2.70;;
819;SDS011;392;48.838;2.322;2023-11-21T12:00:13;3.50;;;2.77;;
819;SDS011;392;48.838;2.322;2023-11-21T12:02:44;4.43;;;3.97;;
819;SDS011;392;48.838;2.322;2023-11-21T12:05:13;4.20;;;3.87;;
819;SDS011;392;48.838;2.322;2023-11-21T12:07:43;3.53;;;3.23;;
819;SDS011;392;48.838;2.322;2023-11-21T12:10:16;3.60;;;3.40;;
819;SDS011;392;48.838;2.322;2023-11-21T12:12:47;3.80;;;3.50;;
819;SDS011;392;48.838;2.322;2023-11-21T12:15:15;6.23;;;2.90;;
819;SDS011;392;48.838;2.322;2023-11-21T12:17:43;4.60;;;4.20;;
819;SDS011;392;48.838;2.322;2023-11-21T12:20:14;4.23;;;3.90;;
819;SDS011;392;48.838;2.322;2023-11-21T12:22:45;3.87;;;3.57;;
819;SDS011;392;48.838;2.322;2023-11-21T12:25:14;3.73;;;3.37;;
819;SDS011;392;48.838;2.322;2023-11-21T12:27:44;4.40;;;3.20;;
819;SDS011;392;48.838;2.322;2023-11-21T12:30:15;4.70;;;4.30;;
819;SDS011;392;48.838;2.322;2023-11-21T12:32:44;2.70;;;2.50;;
819;SDS011;392;48.838;2.322;2023-11-21T12:35:15;3.17;;;2.90;;
819;SDS011;392;48.838;2.322;2023-11-21T12:37:44;3.40;;;3.10;;
819;SDS011;392;48.838;2.322;2023-11-21T12:40:13;3.70;;;3.40;;
819;SDS011;392;48.838;2.322;2023-11-21T12:42:43;4.30;;;4.00;;
819;SDS011;392;48.838;2.322;2023-11-21T12:45:21;4.00;;;3.67;;
819;SDS011;392;48.838;2.322;2023-11-21T12:47:51;4.20;;;3.80;;
819;SDS011;392;48.838;2.322;2023-11-21T12:50:22;5.13;;;4.60;;
819;SDS011;392;48.838;2.322;2023-11-21T12:52:54;4.90;;;4.50;;
819;SDS011;392;48.838;2.322;2023-11-21T12:55:25;4.03;;;3.70;;
819;SDS011;392;48.838;2.322;2023-11-21T12:57:56;6.00;;;3.87;;
819;SDS011;392;48.838;2.322;2023-11-21T13:00:29;3.73;;;3.43;;
819;SDS011;392;48.838;2.322;2023-11-21T13:03:03;4.63;;;4.20;;
819;SDS011;392;48.838;2.322;2023-11-21T13:05:32;4.17;;;3.87;;
819;SDS011;392;48.838;2.322;2023-11-21T13:08:04;4.80;;;4.30;;
819;SDS011;392;48.838;2.322;2023-11-21T13:10:33;4.40;;;4.10;;
819;SDS011;392;48.838;2.322;2023-11-21T13:13:02;4.43;;;4.03;;
819;SDS011;392;48.838;2.322;2023-11-21T13:15:38;4.10;;;3.70;;
819;SDS011;392;48.838;2.322;2023-11-21T13:18:06;4.10;;;3.70;;
819;SDS011;392;48.838;2.322;2023-11-21T13:20:36;3.73;;;3.43;;
819;SDS011;392;48.838;2.322;2023-11-21T13:23:07;4.07;;;3.77;;
819;SDS011;392;48.838;2.322;2023-11-21T13:25:37;3.60;;;3.30;;
819;SDS011;392;48.838;2.322;2023-11-21T13:28:06;4.37;;;3.73;;
819;SDS011;392;48.838;2.322;2023-11-21T13:30:36;3.57;;;3.27;;
819;SDS011;392;48.838;2.322;2023-11-21T13:33:05;4.30;;;3.90;;
819;SDS011;392;48.838;2.322;2023-11-21T13:35:34;3.93;;;3.63;;
819;SDS011;392;48.838;2.322;2023-11-21T13:38:08;3.77;;;3.47;;
819;SDS011;392;48.838;2.322;2023-11-21T13:40:38;3.27;;;3.00;;
819;SDS011;392;48.838;2.322;2023-11-21T13:43:08;5.17;;;3.57;;
819;SDS011;392;48.838;2.322;2023-11-21T13:45:37;3.67;;;3.37;;
819;SDS011;392;48.838;2.322;2023-11-21T13:48:05;3.67;;;3.37;;
819;SDS011;392;48.838;2.322;2023-11-21T13:50:35;3.13;;;2.63;;
819;SDS011;392;48.838;2.322;2023-11-21T13:53:02;2.77;;;2.67;;
819;SDS011;392;48.838;2.322;2023-11-21T13:55:36;3.10;;;2.90;;
819;SDS011;392;48.838;2.322;2023-11-21T13:58:05;3.03;;;2.83;;
819;SDS011;392;48.838;2.322;2023-11-21T14:00:38;2.53;;;2.43;;
819;SDS011;392;48.838;2.322;2023-11-21T14:03:10;2.60;;;2.40;;
819;SDS011;392;48.838;2.322;2023-11-21T14:05:46;3.40;;;3.20;;
819;SDS011;392;48.838;2.322;2023-11-21T14:08:17;3.10;;;2.90;;
819;SDS011;392;48.838;2.322;2023-11-21T14:10:50;4.83;;;2.93;;
819;SDS011;392;48.838;2.322;2023-11-21T14:13:20;8.00;;;7.30;;
819;SDS011;392;48.838;2.322;2023-11-21T14:15:49;3.47;;;3.27;;
819;SDS011;392;48.838;2.322;2023-11-21T14:18:22;3.40;;;3.10;;
819;SDS011;392;48.838;2.322;2023-11-21T14:20:55;3.20;;;3.00;;
819;SDS011;392;48.838;2.322;2023-11-21T14:23:23;3.53;;;3.23;;
819;SDS011;392;48.838;2.322;2023-11-21T14:25:50;2.83;;;2.60;;
819;SDS011;392;48.838;2.322;2023-11-21T14:28:18;2.70;;;2.40;;
819;SDS011;392;48.838;2.322;2023-11-21T14:30:45;2.90;;;2.20;;
819;SDS011;392;48.838;2.322;2023-11-21T14:33:14;2.53;;;2.33;;
819;SDS011;392;48.838;2.322;2023-11-21T14:35:41;3.03;;;2.83;;
819;SDS011;392;48.838;2.322;2023-11-21T14:38:09;2.73;;;2.53;;
819;SDS011;392;48.838;2.322;2023-11-21T14:40:39;3.33;;;3.13;;
819;SDS011;392;48.838;2.322;2023-11-21T14:43:06;2.50;;;2.27;;
819;SDS011;392;48.838;2.322;2023-11-21T14:45:33;2.43;;;2.30;;
819;SDS011;392;48.838;2.322;2023-11-21T14:48:01;2.37;;;2.20;;
819;SDS011;392;48.838;2.322;2023-11-21T14:50:42;2.33;;;2.13;;
819;SDS011;392;48.838;2.322;2023-11-21T14:53:21;2.90;;;2.70;;
819;SDS011;392;48.838;2.322;2023-11-21T14:56:09;3.10;;;2.77;;
819;SDS011;392;48.838;2.322;2023-11-21T14:58:36;2.20;;;2.10;;
819;SDS011;392;48.838;2.322;2023-11-21T15:01:04;5.23;;;2.90;;
819;SDS011;392;48.838;2.322;2023-11-21T15:03:33;3.00;;;2.80;;
819;SDS011;392;48.838;2.322;2023-11-21T15:06:10;2.10;;;2.00;;
819;SDS011;392;48.838;2.322;2023-11-21T15:08:50;2.70;;;2.40;;
819;SDS011;392;48.838;2.322;2023-11-21T15:11:24;2.50;;;2.30;;
819;SDS011;392;48.838;2.322;2023-11-21T15:13:56;3.23;;;2.93;;
819;SDS011;392;48.838;2.322;2023-11-21T15:16:24;2.30;;;2.10;;
819;SDS011;392;48.838;2.322;2023-11-21T15:18:52;2.47;;;2.37;;
819;SDS011;392;48.838;2.322;2023-11-21T15:21:21;2.73;;;2.53;;
819;SDS011;392;48.838;2.322;2023-11-21T15:23:49;1.80;;;1.70;;
819;SDS011;392;48.838;2.322;2023-11-21T15:26:17;3.73;;;1.60;;
819;SDS011;392;48.838;2.322;2023-11-21T15:28:44;2.23;;;2.03;;
819;SDS011;392;48.838;2.322;2023-11-21T15:31:12;2.20;;;2.00;;
819;SDS011;392;48.838;2.322;2023-11-21T15:33:41;1.90;;;1.80;;
819;SDS011;392;48.838;2.322;2023-11-21T15:36:09;2.90;;;2.40;;
819;SDS011;392;48.838;2.322;2023-11-21T15:38:37;2.17;;;1.97;;
819;SDS011;392;48.838;2.322;2023-11-21T15:41:05;3.07;;;2.83;;
819;SDS011;392;48.838;2.322;2023-11-21T15:43:35;3.43;;;2.60;;
819;SDS011;392;48.838;2.322;2023-11-21T15:46:02;4.77;;;3.50;;
819;SDS011;392;48.838;2.322;2023-11-21T15:48:32;2.47;;;2.37;;
819;SDS011;392;48.838;2.322;2023-11-21T15:51:01;2.80;;;2.67;;
819;SDS011;392;48.838;2.322;2023-11-21T15:53:30;2.83;;;2.67;;
819;SDS011;392;48.838;2.322;2023-11-21T15:55:59;2.17;;;2.07;;
819;SDS011;392;48.838;2.322;2023-11-21T15:58:29;4.80;;;4.17;;